Time;durP1;ratioP1;P1;durP2;ratioP2;P2;SDS_P1;SDS_P2;PMS_P1;PMS_P2;Temp;Humidity;BMP_temperature;BMP_pressure;BME280_temperature;BME280_humidity;BME280_pressure;Samples;Min_cycle;Max_cycle;Signal;HPM_P1;HPM_P2
2023/09/15 00:00:23;;;;;;;2.10;1.55;;;12.90;1.00;;;;;;4956848;28;20207;-87
2023/09/15 00:02:49;;;;;;;2.42;1.58;;;12.80;1.00;;;;;;4957212;28;20188;-87
2023/09/15 00:05:15;;;;;;;2.40;1.23;;;12.70;1.00;;;;;;4956712;28;20185;-88
2023/09/15 00:07:41;;;;;;;2.50;1.48;;;12.90;1.00;;;;;;4956736;28;20181;-87
2023/09/15 00:10:11;;;;;;;3.13;1.58;;;12.90;1.00;;;;;;4972262;28;20195;-87
2023/09/15 00:12:37;;;;;;;1.48;1.30;;;12.90;1.00;;;;;;4973443;28;20209;-88
2023/09/15 00:15:10;;;;;;;3.97;1.60;;;12.70;1.00;;;;;;4971123;28;20201;-89
2023/09/15 00:17:37;;;;;;;2.50;1.40;;;12.70;23.60;;;;;;4955689;28;20188;-89
2023/09/15 00:20:13;;;;;;;1.45;1.35;;;12.80;1.00;;;;;;4973564;28;20599;-87
2023/09/15 00:22:50;;;;;;;1.58;1.25;;;12.70;1.00;;;;;;4948926;28;20195;-88
2023/09/15 00:25:20;;;;;;;2.25;1.60;;;12.90;1.00;;;;;;4956480;28;20244;-88
2023/09/15 00:27:53;;;;;;;3.00;1.70;;;12.80;1.00;;;;;;4956228;28;20212;-88
2023/09/15 00:30:21;;;;;;;2.78;1.50;;;13.10;1.00;;;;;;4956639;28;20188;-89
2023/09/15 00:32:48;;;;;;;2.33;1.38;;;12.90;1.00;;;;;;4956037;28;20228;-88
2023/09/15 00:35:18;;;;;;;2.03;1.48;;;12.90;1.00;;;;;;4956153;28;20193;-89
2023/09/15 00:37:49;;;;;;;2.65;1.67;;;12.80;1.00;;;;;;4972510;28;20181;-89
2023/09/15 00:40:20;;;;;;;2.78;1.65;;;12.90;1.00;;;;;;4973745;28;20169;-90
2023/09/15 00:42:47;;;;;;;2.63;1.63;;;12.80;1.00;;;;;;4955975;28;20653;-87
2023/09/15 00:45:14;;;;;;;3.00;1.73;;;12.80;1.00;;;;;;4973249;28;20295;-88
2023/09/15 00:47:43;;;;;;;2.00;1.70;;;12.80;1.00;;;;;;4972354;28;20192;-88
2023/09/15 00:50:13;;;;;;;2.15;1.45;;;12.80;1.00;;;;;;4955847;28;20814;-89
2023/09/15 00:52:41;;;;;;;2.85;1.70;;;12.60;1.00;;;;;;4955924;28;20223;-86
2023/09/15 00:55:08;;;;;;;2.78;1.73;;;12.80;1.00;;;;;;4947217;28;20735;-87
2023/09/15 00:57:37;;;;;;;3.47;1.73;;;12.60;2.00;;;;;;4955776;28;20181;-87
2023/09/15 01:00:03;;;;;;;3.83;2.00;;;12.50;17.50;;;;;;4955949;28;20215;-87
2023/09/15 01:02:29;;;;;;;2.83;1.65;;;12.20;26.50;;;;;;4955874;28;20660;-88
2023/09/15 01:04:56;;;;;;;4.50;1.90;;;12.00;99.90;;;;;;4972916;28;20217;-87
2023/09/15 01:07:21;;;;;;;3.42;2.10;;;11.70;1.00;;;;;;4955450;28;20185;-86
2023/09/15 01:09:47;;;;;;;1.88;1.58;;;11.90;99.90;;;;;;4955902;28;20204;-88
2023/09/15 01:12:13;;;;;;;4.45;1.88;;;11.80;99.90;;;;;;4954993;28;20209;-88
2023/09/15 01:14:38;;;;;;;3.45;1.98;;;11.90;99.90;;;;;;4970724;28;20201;-88
2023/09/15 01:17:14;;;;;;;3.20;2.15;;;11.90;99.90;;;;;;4970958;28;20188;-87
2023/09/15 01:19:58;;;;;;;3.75;2.60;;;12.10;1.00;;;;;;4954511;28;20542;-88
2023/09/15 01:23:01;;;;;;;3.83;1.80;;;12.10;1.00;;;;;;4955074;28;20275;-87
2023/09/15 01:25:53;;;;;;;2.70;2.00;;;12.30;1.00;;;;;;4963778;28;20203;-86
2023/09/15 01:28:36;;;;;;;3.47;2.05;;;12.40;99.90;;;;;;4972172;28;20185;-86
2023/09/15 01:31:02;;;;;;;3.58;2.35;;;12.30;99.90;;;;;;4971163;28;20189;-88
2023/09/15 01:33:29;;;;;;;4.95;2.45;;;12.30;99.90;;;;;;4954281;28;20213;-85
2023/09/15 01:35:54;;;;;;;3.33;2.20;;;12.20;99.90;;;;;;4972229;28;20533;-87
2023/09/15 01:38:22;;;;;;;3.42;2.42;;;12.10;1.00;;;;;;4972229;28;20244;-88
2023/09/15 01:40:47;;;;;;;4.03;2.50;;;12.00;1.00;;;;;;4954919;28;20204;-87
2023/09/15 01:43:13;;;;;;;4.18;2.83;;;11.90;1.00;;;;;;4954731;28;21065;-88
2023/09/15 01:45:38;;;;;;;2.90;2.13;;;12.00;1.00;;;;;;4954748;28;20184;-87
2023/09/15 01:48:06;;;;;;;2.92;2.10;;;11.90;1.00;;;;;;4954863;28;20196;-88
2023/09/15 01:50:32;;;;;;;3.00;2.10;;;11.90;1.00;;;;;;4954830;28;20193;-87
2023/09/15 01:52:58;;;;;;;3.15;2.25;;;12.00;1.00;;;;;;4971490;28;20269;-89
2023/09/15 01:55:25;;;;;;;3.17;2.17;;;12.00;1.00;;;;;;4954606;28;20188;-88
2023/09/15 01:57:51;;;;;;;3.78;2.10;;;12.10;1.00;;;;;;4954253;28;20189;-87
2023/09/15 02:00:17;;;;;;;2.78;2.17;;;12.10;99.90;;;;;;4954476;28;20189;-87
2023/09/15 02:02:42;;;;;;;3.30;2.13;;;12.30;99.90;;;;;;4954633;28;20181;-86
2023/09/15 02:05:14;;;;;;;3.88;2.10;;;12.20;99.90;;;;;;4954194;28;20208;-87
2023/09/15 02:07:40;;;;;;;5.32;3.75;;;12.20;99.90;;;;;;4946951;28;20192;-87
2023/09/15 02:10:06;;;;;;;5.03;2.65;;;12.30;99.90;;;;;;4954279;28;20189;-87
2023/09/15 02:12:31;;;;;;;3.78;2.80;;;12.30;99.90;;;;;;4954127;28;20204;-88
2023/09/15 02:14:57;;;;;;;4.82;2.70;;;12.30;99.90;;;;;;4971421;28;20217;-87
2023/09/15 02:17:23;;;;;;;4.75;2.85;;;12.30;99.90;;;;;;4971780;28;20220;-87
2023/09/15 02:19:49;;;;;;;4.07;2.67;;;12.30;99.90;;;;;;4971706;28;20707;-87
2023/09/15 02:22:15;;;;;;;3.13;2.33;;;12.40;99.90;;;;;;4954409;28;20224;-89
2023/09/15 02:24:40;;;;;;;2.67;2.22;;;12.30;51.20;;;;;;4953822;28;20881;-88
2023/09/15 02:27:06;;;;;;;3.33;2.42;;;12.40;83.30;;;;;;4971425;28;20757;-86
2023/09/15 02:29:32;;;;;;;3.25;2.50;;;12.40;57.90;;;;;;4954251;28;20189;-86
2023/09/15 02:31:58;;;;;;;5.20;2.25;;;12.30;19.00;;;;;;4953754;28;20211;-86
2023/09/15 02:34:23;;;;;;;3.50;2.33;;;12.40;15.90;;;;;;4953932;28;20199;-86
2023/09/15 02:36:49;;;;;;;3.97;2.40;;;12.30;16.00;;;;;;4954018;28;20226;-87
2023/09/15 02:39:14;;;;;;;3.58;2.65;;;12.30;1.00;;;;;;4953260;28;20173;-88
2023/09/15 02:41:40;;;;;;;2.35;2.03;;;12.30;1.00;;;;;;4953678;28;20185;-87
2023/09/15 02:44:07;;;;;;;2.92;2.22;;;12.40;1.00;;;;;;4953133;28;20205;-86
2023/09/15 02:46:33;;;;;;;3.38;2.50;;;12.20;1.00;;;;;;4954006;28;20192;-87
2023/09/15 02:48:59;;;;;;;3.92;2.03;;;12.20;1.00;;;;;;4953944;28;20680;-88
2023/09/15 02:51:25;;;;;;;3.47;2.30;;;12.20;1.00;;;;;;4953650;28;20233;-88
2023/09/15 02:53:51;;;;;;;4.43;2.60;;;12.30;1.00;;;;;;4953341;28;20221;-87
2023/09/15 02:56:16;;;;;;;5.07;2.25;;;12.20;1.00;;;;;;4953860;28;20180;-87
2023/09/15 02:58:42;;;;;;;2.95;2.08;;;12.20;1.00;;;;;;4971108;28;20227;-86
2023/09/15 03:01:15;;;;;;;4.18;2.22;;;12.20;1.00;;;;;;4953675;28;20196;-88
2023/09/15 03:03:41;;;;;;;2.53;2.13;;;12.20;1.00;;;;;;4969504;28;20229;-87
2023/09/15 03:06:08;;;;;;;4.18;2.13;;;12.10;1.00;;;;;;4953662;28;20189;-88
2023/09/15 03:08:35;;;;;;;3.17;2.00;;;12.20;1.00;;;;;;4953766;28;20607;-88
2023/09/15 03:11:01;;;;;;;3.13;1.98;;;12.30;1.00;;;;;;4953498;28;20565;-88
2023/09/15 03:13:27;;;;;;;3.92;1.90;;;12.30;1.00;;;;;;4970463;28;20208;-87
2023/09/15 03:15:52;;;;;;;2.88;2.10;;;12.30;1.00;;;;;;4970787;28;20192;-87
2023/09/15 03:18:18;;;;;;;2.63;2.00;;;12.00;1.00;;;;;;4969593;28;20209;-88
2023/09/15 03:20:43;;;;;;;2.92;2.17;;;12.10;1.00;;;;;;4953591;28;20600;-87
2023/09/15 03:23:09;;;;;;;2.88;2.00;;;12.20;1.00;;;;;;4970031;28;20204;-86
2023/09/15 03:25:35;;;;;;;3.00;2.00;;;12.00;1.00;;;;;;4953467;28;20245;-87
2023/09/15 03:28:01;;;;;;;2.80;2.00;;;12.00;1.00;;;;;;4953659;28;20244;-87
2023/09/15 03:30:26;;;;;;;3.38;2.00;;;11.90;1.00;;;;;;4953562;28;20244;-89
2023/09/15 03:32:53;;;;;;;3.40;2.00;;;12.00;1.00;;;;;;4953107;28;20212;-88
2023/09/15 03:35:20;;;;;;;4.43;2.13;;;12.00;1.00;;;;;;4953371;28;20181;-87
2023/09/15 03:37:45;;;;;;;2.33;1.90;;;11.90;1.00;;;;;;4953448;28;20185;-87
2023/09/15 03:40:11;;;;;;;2.42;1.73;;;11.90;1.00;;;;;;4970764;28;20248;-87
2023/09/15 03:42:38;;;;;;;3.53;2.15;;;11.90;1.00;;;;;;4953415;28;20229;-86
2023/09/15 03:45:08;;;;;;;2.15;1.77;;;12.00;1.00;;;;;;4953340;28;20223;-87
2023/09/15 03:47:34;;;;;;;2.35;2.00;;;11.90;1.00;;;;;;4970469;28;20188;-86
2023/09/15 03:50:00;;;;;;;3.72;2.03;;;11.90;1.00;;;;;;4971376;28;20189;-88
2023/09/15 03:52:26;;;;;;;2.22;1.83;;;11.80;1.00;;;;;;4973944;28;20236;-87
2023/09/15 03:54:51;;;;;;;2.47;2.00;;;11.80;1.00;;;;;;4974084;28;20240;-86
2023/09/15 03:57:17;;;;;;;3.20;1.90;;;11.80;1.00;;;;;;4956469;28;20192;-88
2023/09/15 03:59:42;;;;;;;2.70;2.28;;;11.90;1.00;;;;;;4956826;28;20813;-89
2023/09/15 04:02:08;;;;;;;3.88;2.00;;;11.80;1.00;;;;;;4956926;28;20185;-88
2023/09/15 04:04:34;;;;;;;4.03;2.10;;;11.90;1.00;;;;;;4956021;28;20205;-88
2023/09/15 04:06:59;;;;;;;3.63;2.50;;;11.70;1.00;;;;;;4956519;28;20185;-86
2023/09/15 04:09:25;;;;;;;3.55;2.00;;;11.80;1.00;;;;;;4974164;28;20180;-89
2023/09/15 04:11:51;;;;;;;4.83;2.27;;;11.80;1.00;;;;;;4956809;28;20343;-90
2023/09/15 04:14:17;;;;;;;4.43;2.43;;;11.80;1.00;;;;;;4956375;28;20228;-89
2023/09/15 04:16:43;;;;;;;3.27;2.60;;;11.80;1.00;;;;;;4956531;28;20181;-89
2023/09/15 04:19:08;;;;;;;3.40;2.20;;;11.80;1.00;;;;;;4974102;28;20181;-89
2023/09/15 04:21:35;;;;;;;3.80;2.50;;;11.70;1.00;;;;;;4956641;28;20944;-88
2023/09/15 04:24:00;;;;;;;2.93;2.27;;;11.70;1.00;;;;;;4955475;28;20235;-89
2023/09/15 04:26:26;;;;;;;2.88;2.58;;;11.70;1.00;;;;;;4956478;28;20276;-89
2023/09/15 04:28:52;;;;;;;4.23;2.57;;;11.80;1.00;;;;;;4956519;28;20188;-88
2023/09/15 04:31:17;;;;;;;4.60;2.72;;;11.80;1.00;;;;;;4973967;28;20185;-90
2023/09/15 04:33:44;;;;;;;3.93;2.50;;;11.80;1.00;;;;;;4956162;28;20272;-90
2023/09/15 04:36:09;;;;;;;3.43;2.50;;;11.70;1.00;;;;;;4956191;28;20181;-89
2023/09/15 04:38:35;;;;;;;3.57;2.43;;;11.70;1.00;;;;;;4956340;28;20188;-89
2023/09/15 04:41:00;;;;;;;4.03;3.07;;;11.80;1.00;;;;;;4956316;28;20534;-88
2023/09/15 04:43:29;;;;;;;3.97;2.67;;;11.70;1.00;;;;;;4956246;28;20295;-88
2023/09/15 04:45:56;;;;;;;4.30;3.00;;;11.60;1.00;;;;;;4973343;28;20193;-87
2023/09/15 04:48:21;;;;;;;5.03;3.00;;;11.70;1.00;;;;;;4973369;28;20683;-87
2023/09/15 04:50:47;;;;;;;3.28;2.75;;;11.50;1.00;;;;;;4956087;28;20268;-87
2023/09/15 04:53:14;;;;;;;4.23;2.83;;;11.60;1.00;;;;;;4955622;28;20739;-87
2023/09/15 04:55:40;;;;;;;3.10;2.80;;;11.60;1.00;;;;;;4955770;28;20392;-89
2023/09/15 04:58:06;;;;;;;4.80;3.10;;;11.60;1.00;;;;;;4955829;28;20745;-88
2023/09/15 05:00:34;;;;;;;4.63;3.08;;;11.60;1.00;;;;;;4973068;28;20232;-89
2023/09/15 05:03:03;;;;;;;5.20;3.20;;;11.60;1.00;;;;;;4962233;28;20197;-87
2023/09/15 05:05:29;;;;;;;4.22;2.88;;;11.60;1.00;;;;;;4956018;28;20563;-88
2023/09/15 05:07:56;;;;;;;4.43;3.57;;;11.60;1.00;;;;;;4964261;28;20252;-89
2023/09/15 05:10:22;;;;;;;3.75;3.15;;;11.80;1.00;;;;;;4954783;28;20216;-89
2023/09/15 05:12:48;;;;;;;5.93;3.30;;;11.70;1.00;;;;;;4968650;28;20939;-89
2023/09/15 05:15:13;;;;;;;4.65;2.88;;;11.60;1.00;;;;;;4954742;28;20205;-88
2023/09/15 05:17:40;;;;;;;3.90;3.20;;;11.60;1.00;;;;;;4955299;28;20177;-88
2023/09/15 05:20:06;;;;;;;3.43;3.10;;;11.60;1.00;;;;;;4970953;28;20189;-87
2023/09/15 05:22:32;;;;;;;5.18;3.70;;;11.70;1.00;;;;;;4955158;28;20196;-88
2023/09/15 05:24:58;;;;;;;4.22;3.08;;;11.70;1.00;;;;;;4954886;28;20224;-87
2023/09/15 05:27:23;;;;;;;5.20;3.13;;;11.70;1.00;;;;;;4972365;28;20322;-87
2023/09/15 05:29:50;;;;;;;5.70;3.50;;;12.00;1.00;;;;;;4955423;28;20197;-87
2023/09/15 05:32:16;;;;;;;5.78;3.13;;;11.60;1.00;;;;;;4954996;28;20282;-87
2023/09/15 05:34:41;;;;;;;5.07;2.95;;;11.70;1.00;;;;;;4974283;28;20709;-86
2023/09/15 05:37:07;;;;;;;4.10;3.35;;;11.70;1.00;;;;;;4958234;28;20332;-89
2023/09/15 05:39:33;;;;;;;4.25;3.13;;;11.80;1.00;;;;;;4972821;28;20189;-88
2023/09/15 05:41:59;;;;;;;5.53;3.47;;;11.70;1.00;;;;;;4955173;28;20204;-88
2023/09/15 05:44:24;;;;;;;4.85;3.58;;;11.80;1.00;;;;;;4954446;28;20215;-88
2023/09/15 05:46:52;;;;;;;3.75;3.35;;;11.90;1.00;;;;;;4954887;28;20197;-88
2023/09/15 05:49:18;;;;;;;6.60;3.80;;;11.90;1.00;;;;;;4954755;28;20208;-87
2023/09/15 05:51:43;;;;;;;5.25;3.75;;;11.90;1.00;;;;;;4954655;28;20217;-86
2023/09/15 05:54:09;;;;;;;5.22;3.75;;;11.80;1.00;;;;;;4953811;28;20209;-89
2023/09/15 05:56:35;;;;;;;7.32;4.35;;;11.80;1.00;;;;;;4954639;28;20192;-88
2023/09/15 05:59:01;;;;;;;6.63;3.60;;;12.00;70.90;;;;;;4954529;28;20267;-89
2023/09/15 06:01:26;;;;;;;6.00;4.20;;;11.90;99.90;;;;;;4954617;28;20216;-89
2023/09/15 06:03:52;;;;;;;4.07;3.35;;;11.80;99.90;;;;;;4953423;28;21137;-88
2023/09/15 06:06:18;;;;;;;7.43;3.95;;;11.90;99.90;;;;;;4953743;28;20193;-88
2023/09/15 06:08:44;;;;;;;6.88;4.22;;;11.80;99.90;;;;;;4954557;28;20188;-88
2023/09/15 06:11:10;;;;;;;6.32;4.40;;;11.80;1.00;;;;;;4953100;28;20184;-89
2023/09/15 06:13:37;;;;;;;5.20;4.30;;;11.80;1.00;;;;;;4954342;28;20204;-88
2023/09/15 06:16:06;;;;;;;7.40;5.05;;;11.80;1.00;;;;;;4971391;28;20192;-88
2023/09/15 06:18:33;;;;;;;7.43;4.85;;;11.60;35.80;;;;;;4954376;28;20185;-88
2023/09/15 06:20:58;;;;;;;8.18;5.07;;;11.90;99.90;;;;;;4937906;28;20193;-88
2023/09/15 06:23:24;;;;;;;10.25;5.38;;;11.80;99.90;;;;;;4971227;28;20248;-90
2023/09/15 06:25:53;;;;;;;9.82;5.10;;;11.90;99.90;;;;;;4954438;28;20275;-89
2023/09/15 06:28:19;;;;;;;7.22;5.70;;;11.90;75.60;;;;;;4953998;28;20192;-88
2023/09/15 06:30:44;;;;;;;7.35;5.57;;;11.80;99.90;;;;;;4970974;28;20193;-90
2023/09/15 06:33:10;;;;;;;7.63;5.00;;;11.90;1.00;;;;;;4970869;28;20247;-88
2023/09/15 06:35:36;;;;;;;9.20;5.43;;;12.20;99.90;;;;;;4953630;28;20181;-89
2023/09/15 06:38:02;;;;;;;8.20;6.22;;;12.10;99.90;;;;;;4954041;28;20232;-87
2023/09/15 06:43:50;;;;;;;8.82;6.00;;;12.20;1.00;;;;;;4970780;28;20219;-89
2023/09/15 06:46:21;;;;;;;7.75;5.78;;;12.20;63.60;;;;;;4954101;28;20641;-89
2023/09/15 06:48:48;;;;;;;7.80;5.60;;;12.60;1.00;;;;;;4954438;28;20194;-88
2023/09/15 06:51:13;;;;;;;6.78;4.70;;;12.60;1.00;;;;;;4954084;28;20177;-88
2023/09/15 06:53:39;;;;;;;9.73;5.65;;;12.50;1.00;;;;;;4953813;28;20268;-88
2023/09/15 06:56:04;;;;;;;9.43;5.85;;;12.60;1.00;;;;;;4954327;28;20236;-87
2023/09/15 06:58:30;;;;;;;7.10;6.30;;;12.70;1.00;;;;;;4954269;28;20181;-87
2023/09/15 07:00:56;;;;;;;12.30;6.63;;;12.70;1.00;;;;;;4954185;28;20188;-88
2023/09/15 07:03:23;;;;;;;10.25;6.50;;;12.90;1.00;;;;;;4970510;28;20216;-87
2023/09/15 07:05:49;;;;;;;9.07;6.10;;;13.00;1.00;;;;;;4952033;28;20197;-87
2023/09/15 07:08:15;;;;;;;6.35;5.75;;;13.00;1.00;;;;;;4953780;28;20192;-88
2023/09/15 07:10:41;;;;;;;9.07;6.43;;;13.10;1.00;;;;;;4954061;28;20184;-89
2023/09/15 07:13:06;;;;;;;6.72;6.05;;;13.20;1.00;;;;;;4953464;28;20689;-87
2023/09/15 07:15:36;;;;;;;8.02;6.20;;;13.30;1.00;;;;;;4954123;28;20185;-89
2023/09/15 07:18:04;;;;;;;6.35;5.57;;;13.40;1.00;;;;;;4971095;28;20611;-88
2023/09/15 07:20:30;;;;;;;10.27;6.00;;;13.40;99.90;;;;;;4971151;28;20236;-88
2023/09/15 07:22:56;;;;;;;9.15;6.30;;;13.50;27.80;;;;;;4953988;28;20197;-88
2023/09/15 07:25:22;;;;;;;9.20;6.15;;;13.70;1.00;;;;;;4955480;28;20544;-87
2023/09/15 07:27:48;;;;;;;8.10;5.93;;;13.70;1.00;;;;;;4957785;28;20204;-87
2023/09/15 07:30:15;;;;;;;8.68;6.25;;;13.80;1.00;;;;;;4974853;28;20193;-88
2023/09/15 07:32:41;;;;;;;8.52;5.95;;;14.00;1.00;;;;;;4957323;28;20263;-87
2023/09/15 07:35:09;;;;;;;8.32;5.20;;;14.10;99.90;;;;;;4957310;28;20295;-88
2023/09/15 07:37:35;;;;;;;8.30;5.55;;;14.20;99.90;;;;;;4957528;28;20181;-87
2023/09/15 07:40:02;;;;;;;7.20;5.90;;;14.30;99.90;;;;;;4957292;28;20185;-88
2023/09/15 07:42:27;;;;;;;8.02;5.38;;;14.40;99.90;;;;;;4957360;28;20189;-87
2023/09/15 07:44:53;;;;;;;9.57;6.20;;;14.50;99.90;;;;;;4957425;28;20213;-87
2023/09/15 07:47:19;;;;;;;7.55;5.43;;;14.60;99.90;;;;;;4972817;28;20193;-88
2023/09/15 07:49:45;;;;;;;8.95;5.18;;;14.70;99.90;;;;;;4955481;28;20606;-87
2023/09/15 07:52:12;;;;;;;8.98;5.65;;;14.80;97.60;;;;;;4953506;28;20259;-88
2023/09/15 07:54:37;;;;;;;6.35;5.53;;;14.90;99.90;;;;;;4954351;28;20213;-87
2023/09/15 07:57:03;;;;;;;8.52;4.93;;;15.00;99.80;;;;;;4954826;28;20195;-87
2023/09/15 07:59:30;;;;;;;5.47;4.70;;;15.00;9.10;;;;;;4956483;28;20597;-87
2023/09/15 08:01:56;;;;;;;7.32;5.10;;;15.20;15.80;;;;;;4957258;28;20573;-87
2023/09/15 08:04:21;;;;;;;6.78;4.45;;;15.20;1.00;;;;;;4956853;28;20223;-87
2023/09/15 08:06:49;;;;;;;6.53;4.80;;;15.30;1.00;;;;;;4957598;28;20185;-88
2023/09/15 08:09:17;;;;;;;7.97;4.78;;;15.30;1.00;;;;;;4957039;28;20260;-87
2023/09/15 08:11:43;;;;;;;8.82;4.78;;;15.50;1.00;;;;;;4972871;28;20180;-87
2023/09/15 08:14:08;;;;;;;7.03;4.72;;;15.50;1.00;;;;;;4956941;28;20215;-87
2023/09/15 08:16:34;;;;;;;7.05;4.60;;;15.50;1.00;;;;;;4974350;28;20185;-87
2023/09/15 08:19:00;;;;;;;8.88;4.80;;;15.70;1.00;;;;;;4970994;28;20671;-89
2023/09/15 08:21:26;;;;;;;6.50;4.72;;;15.70;1.00;;;;;;4957430;28;20555;-89
2023/09/15 08:23:52;;;;;;;5.68;4.50;;;15.90;1.00;;;;;;4956650;28;20289;-87
2023/09/15 08:26:17;;;;;;;5.65;5.03;;;15.90;1.00;;;;;;4953130;28;20296;-86
2023/09/15 08:28:43;;;;;;;7.40;4.72;;;16.10;1.00;;;;;;4953815;28;20724;-88
2023/09/15 08:31:09;;;;;;;6.88;4.50;;;16.20;1.00;;;;;;4953655;28;20288;-86
2023/09/15 08:33:35;;;;;;;7.47;4.90;;;16.20;1.00;;;;;;4973938;28;20253;-85
2023/09/15 08:36:01;;;;;;;6.10;4.45;;;16.30;1.00;;;;;;4956344;28;20200;-86
2023/09/15 08:38:31;;;;;;;6.25;4.57;;;16.40;1.00;;;;;;4955964;28;20268;-87
2023/09/15 08:41:16;;;;;;;6.78;5.00;;;16.40;1.00;;;;;;4956437;28;20208;-86
2023/09/15 08:43:43;;;;;;;6.47;4.90;;;16.50;1.00;;;;;;4973437;28;20211;-85
2023/09/15 08:46:10;;;;;;;8.20;4.90;;;16.50;1.00;;;;;;4947808;28;20185;-86
2023/09/15 08:48:40;;;;;;;7.68;4.90;;;16.60;1.00;;;;;;4972553;28;20200;-87
2023/09/15 08:51:06;;;;;;;7.65;4.85;;;16.80;1.00;;;;;;4971320;28;20839;-87
2023/09/15 08:53:34;;;;;;;5.07;4.50;;;16.80;1.00;;;;;;4952467;28;20707;-87
2023/09/15 08:56:01;;;;;;;6.32;4.50;;;16.90;1.00;;;;;;4950461;28;20391;-86
2023/09/15 08:58:28;;;;;;;7.95;4.82;;;17.00;1.00;;;;;;4956162;28;20239;-86
2023/09/15 09:00:56;;;;;;;6.78;4.75;;;17.10;1.00;;;;;;4972783;28;20535;-87
2023/09/15 09:03:23;;;;;;;7.90;4.60;;;17.20;1.00;;;;;;4955454;28;20709;-86
2023/09/15 09:05:50;;;;;;;5.90;4.85;;;17.30;1.00;;;;;;4956003;28;20282;-87
2023/09/15 09:08:20;;;;;;;6.15;4.50;;;17.40;1.00;;;;;;4964530;28;20193;-87
2023/09/15 09:10:49;;;;;;;5.80;4.40;;;17.40;1.00;;;;;;4955348;28;20189;-87
2023/09/15 09:13:19;;;;;;;5.70;4.43;;;17.50;1.00;;;;;;4954884;28;20220;-87
2023/09/15 09:15:47;;;;;;;4.95;4.20;;;17.50;1.00;;;;;;4948743;28;20279;-87
2023/09/15 09:18:15;;;;;;;6.43;4.35;;;17.60;1.00;;;;;;4972779;28;20177;-86
2023/09/15 09:20:40;;;;;;;5.57;3.80;;;17.80;1.00;;;;;;4955816;28;20177;-86
2023/09/15 09:23:07;;;;;;;7.05;4.03;;;17.80;1.00;;;;;;4955013;28;20205;-87
2023/09/15 09:25:34;;;;;;;5.40;4.00;;;17.80;99.90;;;;;;4953349;28;20721;-85
2023/09/15 09:28:01;;;;;;;6.03;3.88;;;17.90;99.90;;;;;;4955354;28;20188;-86
2023/09/15 09:30:29;;;;;;;5.53;4.00;;;17.90;99.90;;;;;;4955383;28;20193;-86
2023/09/15 09:32:56;;;;;;;6.32;4.03;;;18.00;99.90;;;;;;4972174;28;20211;-86
2023/09/15 09:35:22;;;;;;;7.65;4.00;;;18.00;99.90;;;;;;4954926;28;20188;-87
2023/09/15 09:37:48;;;;;;;4.20;3.72;;;18.10;99.90;;;;;;4954928;28;21141;-85
2023/09/15 09:40:14;;;;;;;4.63;3.90;;;18.10;99.90;;;;;;4955420;28;20208;-86
2023/09/15 09:42:42;;;;;;;7.88;4.32;;;18.10;99.90;;;;;;4954965;28;20188;-86
2023/09/15 09:45:08;;;;;;;6.93;4.28;;;18.20;99.90;;;;;;4954864;28;20225;-86
2023/09/15 09:47:35;;;;;;;6.40;4.22;;;18.40;99.90;;;;;;4955060;28;20259;-86
2023/09/15 09:50:06;;;;;;;4.45;3.85;;;18.40;99.90;;;;;;4954981;28;20760;-86
2023/09/15 09:52:32;;;;;;;5.03;4.05;;;18.50;99.90;;;;;;4963990;28;20303;-84
2023/09/15 09:55:04;;;;;;;5.93;4.97;;;18.50;99.90;;;;;;4954522;28;20209;-86
2023/09/15 09:57:30;;;;;;;5.07;4.38;;;18.60;99.90;;;;;;4954439;28;20192;-86
2023/09/15 09:59:56;;;;;;;9.70;6.90;;;18.70;99.90;;;;;;4954773;28;20189;-85
2023/09/15 10:02:22;;;;;;;18.98;12.68;;;18.90;99.90;;;;;;4954593;28;20219;-87
2023/09/15 10:04:48;;;;;;;20.98;12.48;;;18.80;99.90;;;;;;4954006;28;20692;-86
2023/09/15 10:07:14;;;;;;;27.80;17.45;;;19.00;99.90;;;;;;4971745;28;20193;-86
2023/09/15 10:09:39;;;;;;;26.38;16.85;;;19.10;99.90;;;;;;4954249;28;20185;-86
2023/09/15 10:12:05;;;;;;;32.08;20.95;;;19.20;99.90;;;;;;4954036;28;20184;-87
2023/09/15 10:14:31;;;;;;;10.93;7.82;;;19.20;99.90;;;;;;4954098;28;20204;-84
2023/09/15 10:16:58;;;;;;;7.18;5.10;;;19.30;99.90;;;;;;4970550;28;20231;-86
2023/09/15 10:19:25;;;;;;;6.45;3.95;;;19.40;99.90;;;;;;4954151;28;20185;-86
2023/09/15 10:21:51;;;;;;;7.35;5.30;;;19.30;99.90;;;;;;4953895;28;20189;-86
2023/09/15 10:24:17;;;;;;;6.00;4.60;;;19.40;99.90;;;;;;4953944;28;20225;-86
2023/09/15 10:26:43;;;;;;;6.72;5.65;;;19.30;99.90;;;;;;4971336;28;20224;-86
2023/09/15 10:29:13;;;;;;;9.00;6.72;;;19.30;99.90;;;;;;4971242;28;20177;-85
2023/09/15 10:31:45;;;;;;;6.65;4.88;;;19.40;99.90;;;;;;4954336;28;20681;-87
2023/09/15 10:34:11;;;;;;;7.43;4.30;;;19.60;99.90;;;;;;4970934;28;20782;-85
2023/09/15 10:36:41;;;;;;;5.70;5.20;;;19.60;99.90;;;;;;4954229;28;20191;-87
2023/09/15 10:39:36;;;;;;;24.67;15.57;;;19.60;99.90;;;;;;4971985;28;20189;-84
2023/09/15 10:42:13;;;;;;;6.30;5.70;;;19.70;99.90;;;;;;4972382;28;20772;-86
2023/09/15 10:44:40;;;;;;;6.35;5.18;;;19.70;99.90;;;;;;4953840;28;20211;-87
2023/09/15 10:47:20;;;;;;;4.97;4.35;;;19.70;99.90;;;;;;4971420;28;20236;-86
2023/09/15 10:49:54;;;;;;;6.07;5.32;;;19.90;99.90;;;;;;4954368;28;20207;-87
2023/09/15 10:52:37;;;;;;;7.38;5.13;;;19.90;99.90;;;;;;4953718;28;20880;-86
2023/09/15 10:55:03;;;;;;;5.75;5.15;;;19.90;99.90;;;;;;4966475;28;20204;-87
2023/09/15 10:57:34;;;;;;;6.07;5.47;;;20.00;99.90;;;;;;4952632;28;20188;-86
2023/09/15 11:00:00;;;;;;;6.47;5.82;;;20.00;99.90;;;;;;4952312;28;20212;-85
2023/09/15 11:02:26;;;;;;;10.15;5.82;;;20.00;99.90;;;;;;4950520;28;20256;-87
2023/09/15 11:04:52;;;;;;;6.03;5.32;;;19.90;99.90;;;;;;4953141;28;20213;-86
2023/09/15 11:07:19;;;;;;;6.13;5.53;;;20.10;99.90;;;;;;4953878;28;20200;-86
2023/09/15 11:09:45;;;;;;;5.75;4.95;;;20.00;99.90;;;;;;4953778;28;20196;-87
2023/09/15 11:12:14;;;;;;;6.22;5.63;;;20.10;99.90;;;;;;4970882;28;20216;-85
2023/09/15 11:14:39;;;;;;;7.35;5.85;;;19.90;99.90;;;;;;4961539;28;20695;-86
2023/09/15 11:17:05;;;;;;;7.35;6.65;;;20.10;99.90;;;;;;4970931;28;20205;-86
2023/09/15 11:19:33;;;;;;;6.85;5.90;;;20.00;99.90;;;;;;4951962;28;20841;-87
2023/09/15 11:22:03;;;;;;;8.00;5.88;;;20.10;99.90;;;;;;4970391;28;20185;-87
2023/09/15 11:24:30;;;;;;;6.72;6.10;;;20.20;99.90;;;;;;4952704;28;20621;-88
2023/09/15 11:26:56;;;;;;;5.68;4.97;;;20.10;99.90;;;;;;4953943;28;20673;-90
2023/09/15 11:29:26;;;;;;;6.88;6.13;;;20.30;99.90;;;;;;4954176;28;20680;-87
2023/09/15 11:31:53;;;;;;;7.10;5.80;;;20.30;71.90;;;;;;4969769;28;20185;-88
2023/09/15 11:34:20;;;;;;;5.75;5.05;;;20.40;93.30;;;;;;4953783;28;20783;-87
2023/09/15 11:36:47;;;;;;;6.10;5.53;;;20.40;92.90;;;;;;4972435;28;20233;-90
2023/09/15 11:39:15;;;;;;;6.38;5.80;;;20.30;82.80;;;;;;4941886;28;20189;-90
2023/09/15 11:41:54;;;;;;;6.07;4.95;;;20.40;90.00;;;;;;4971393;28;20546;-89
2023/09/15 11:44:29;;;;;;;7.07;6.38;;;20.50;58.30;;;;;;4954105;28;20205;-88
2023/09/15 11:46:56;;;;;;;7.97;6.38;;;20.40;69.50;;;;;;4954356;28;20191;-87
2023/09/15 11:49:24;;;;;;;22.90;16.30;;;20.40;57.50;;;;;;4971932;28;20185;-87
2023/09/15 11:51:51;;;;;;;20.80;16.95;;;20.40;30.60;;;;;;4954705;28;20574;-86
2023/09/15 11:54:18;;;;;;;10.90;8.23;;;20.40;42.40;;;;;;4954273;28;20209;-87
2023/09/15 11:56:43;;;;;;;7.55;6.82;;;20.40;45.10;;;;;;4971267;28;20684;-87
2023/09/15 11:59:09;;;;;;;8.88;7.03;;;20.50;72.80;;;;;;4970960;28;20193;-85
2023/09/15 12:01:36;;;;;;;7.20;5.75;;;20.40;56.00;;;;;;4954018;28;20244;-86
2023/09/15 12:04:03;;;;;;;7.70;6.97;;;20.50;40.00;;;;;;4953332;28;20587;-87
2023/09/15 12:06:31;;;;;;;7.47;6.60;;;20.60;56.00;;;;;;4952642;28;20653;-86
2023/09/15 12:08:57;;;;;;;7.53;6.25;;;20.50;46.80;;;;;;4966542;28;20184;-86
2023/09/15 12:11:23;;;;;;;7.78;7.03;;;20.60;39.50;;;;;;4953001;28;20602;-86
2023/09/15 12:13:52;;;;;;;8.55;7.28;;;20.60;36.80;;;;;;4970999;28;20212;-86
2023/09/15 12:16:28;;;;;;;7.40;6.47;;;20.70;34.00;;;;;;4954244;28;20684;-86
2023/09/15 12:18:55;;;;;;;8.70;6.97;;;20.70;60.00;;;;;;4954791;28;20531;-86
2023/09/15 12:21:28;;;;;;;6.53;5.93;;;20.70;41.60;;;;;;4955025;28;20212;-88
2023/09/15 12:23:54;;;;;;;6.72;6.03;;;20.80;36.90;;;;;;4953866;28;20723;-86
2023/09/15 12:26:21;;;;;;;7.45;6.75;;;20.90;25.60;;;;;;4953056;28;20181;-86
2023/09/15 12:28:48;;;;;;;6.80;6.05;;;20.90;25.30;;;;;;4957196;28;20544;-85
2023/09/15 12:31:18;;;;;;;6.97;6.28;;;20.90;17.10;;;;;;4957147;28;20191;-87
2023/09/15 12:33:52;;;;;;;9.00;6.35;;;21.00;24.40;;;;;;4973923;28;20205;-87
2023/09/15 12:36:18;;;;;;;7.43;6.10;;;21.00;1.00;;;;;;4956568;28;20196;-86
2023/09/15 12:38:44;;;;;;;8.65;6.75;;;21.10;1.00;;;;;;4973994;28;20661;-87
2023/09/15 12:41:09;;;;;;;6.97;6.00;;;21.10;1.00;;;;;;4955641;28;20192;-85
2023/09/15 12:43:35;;;;;;;7.60;6.18;;;21.00;1.00;;;;;;4956232;28;20208;-86
2023/09/15 12:46:01;;;;;;;7.10;5.85;;;21.00;1.00;;;;;;4973699;28;20653;-86
2023/09/15 12:48:27;;;;;;;5.57;5.03;;;21.00;1.00;;;;;;4956560;28;20340;-86
2023/09/15 12:50:53;;;;;;;5.95;5.35;;;21.10;1.00;;;;;;4956444;28;20257;-87
2023/09/15 12:53:19;;;;;;;5.32;4.82;;;21.20;1.00;;;;;;4955891;28;20246;-85
2023/09/15 12:55:45;;;;;;;6.07;5.15;;;21.30;1.00;;;;;;4956436;28;20223;-87